createdAt,value
2022-11-13T00:01:17.597Z,100623.56
2022-11-13T00:04:02.889Z,100616.84
2022-11-13T00:06:48.546Z,100619.84
2022-11-13T00:09:34.116Z,100623.41
2022-11-13T00:12:19.134Z,100619.09
2022-11-13T00:15:04.843Z,100612.94
2022-11-13T00:17:50.310Z,100619.59
2022-11-13T00:20:35.718Z,100613.19
2022-11-13T00:23:21.223Z,100614.91
2022-11-13T00:26:14.232Z,100618.69
2022-11-13T00:29:01.277Z,100622.06
2022-11-13T00:31:46.735Z,100607.13
2022-11-13T00:34:46.977Z,100625.88
2022-11-13T00:37:33.231Z,100619.97
2022-11-13T00:40:18.515Z,100618.16
2022-11-13T00:43:03.779Z,100586.66
2022-11-13T00:45:49.521Z,100601.41
2022-11-13T00:48:34.923Z,100609.09
2022-11-13T00:51:20.445Z,100602.94
2022-11-13T00:54:05.617Z,100601.53
2022-11-13T00:56:50.672Z,100563.53
2022-11-13T00:59:35.766Z,100599.00
2022-11-13T01:02:20.888Z,100597.19
2022-11-13T01:05:06.368Z,100570.13
2022-11-13T01:07:51.909Z,100561.06
2022-11-13T01:10:38.729Z,100589.38
2022-11-13T01:13:24.360Z,100593.31
2022-11-13T01:16:10.384Z,100541.22
2022-11-13T01:18:56.337Z,100586.09
2022-11-13T01:21:41.463Z,100585.03
2022-11-13T01:24:26.587Z,100585.47
2022-11-13T01:27:13.269Z,100580.78
2022-11-13T01:29:58.472Z,100581.00
2022-11-13T01:32:43.597Z,100585.22
2022-11-13T01:35:29.013Z,100583.66
2022-11-13T01:38:14.121Z,100587.09
2022-11-13T01:40:59.846Z,100578.22
2022-11-13T01:43:44.991Z,100581.53
2022-11-13T01:46:34.582Z,100575.19
2022-11-13T01:49:39.863Z,100571.34
2022-11-13T01:52:27.206Z,100565.38
2022-11-13T01:55:14.250Z,100557.47
2022-11-13T01:58:00.276Z,100567.91
2022-11-13T02:00:46.037Z,100554.44
2022-11-13T02:03:31.368Z,100556.25
2022-11-13T02:06:16.657Z,100531.00
2022-11-13T02:09:02.141Z,100558.22
2022-11-13T02:11:47.582Z,100558.78
2022-11-13T02:14:33.279Z,100540.81
2022-11-13T02:17:21.284Z,100567.59
2022-11-13T02:20:07.299Z,100558.72
2022-11-13T02:23:01.537Z,100560.41
2022-11-13T02:25:47.909Z,100561.41
2022-11-13T02:28:33.229Z,100567.59
2022-11-13T02:31:18.323Z,100572.38
2022-11-13T02:34:03.712Z,100567.41
2022-11-13T02:36:49.880Z,100545.06
2022-11-13T02:39:35.336Z,100565.97
2022-11-13T02:42:21.047Z,100564.22
2022-11-13T02:45:07.066Z,100561.34
2022-11-13T02:47:52.516Z,100560.00
2022-11-13T02:50:37.816Z,100561.06
2022-11-13T02:53:23.055Z,100561.94
2022-11-13T02:56:08.338Z,100568.34
2022-11-13T02:58:53.853Z,100570.44
2022-11-13T03:01:39.028Z,100572.72
2022-11-13T03:04:24.604Z,100564.06
2022-11-13T03:07:10.154Z,100539.31
2022-11-13T03:09:56.868Z,100567.22
2022-11-13T03:12:42.169Z,100564.72
2022-11-13T03:15:27.157Z,100556.16
2022-11-13T03:18:12.625Z,100557.34
2022-11-13T03:20:58.260Z,100556.56
2022-11-13T03:23:45.390Z,100533.50
2022-11-13T03:26:30.827Z,100556.66
2022-11-13T03:29:15.961Z,100543.72
2022-11-13T03:32:03.357Z,100518.47
2022-11-13T03:34:48.601Z,100548.63
2022-11-13T03:37:33.701Z,100544.13
2022-11-13T03:40:18.976Z,100542.22
2022-11-13T03:43:03.998Z,100549.88
2022-11-13T03:45:49.377Z,100549.19
2022-11-13T03:48:34.656Z,100540.03
2022-11-13T03:51:19.856Z,100525.50
2022-11-13T03:54:05.252Z,100549.06
2022-11-13T03:56:50.404Z,100543.94
2022-11-13T03:59:35.543Z,100547.25
2022-11-13T04:02:20.670Z,100541.28
2022-11-13T04:05:06.067Z,100540.63
2022-11-13T04:07:51.321Z,100538.81
2022-11-13T04:10:36.726Z,100536.28
2022-11-13T04:13:22.024Z,100536.09
2022-11-13T04:16:07.398Z,100542.22
2022-11-13T04:18:53.108Z,100517.63
2022-11-13T04:21:38.663Z,100546.00
2022-11-13T04:24:23.829Z,100555.88
2022-11-13T04:27:08.979Z,100550.47
2022-11-13T04:29:54.113Z,100553.19
2022-11-13T04:32:39.201Z,100552.84
2022-11-13T04:35:24.404Z,100555.53
2022-11-13T04:38:10.286Z,100550.78
2022-11-13T04:41:15.510Z,100533.94
2022-11-13T04:44:01.239Z,100544.41
2022-11-13T04:46:46.514Z,100541.06
2022-11-13T04:49:31.591Z,100532.84
2022-11-13T04:52:16.882Z,100545.00
2022-11-13T04:55:02.637Z,100540.66
2022-11-13T04:57:47.890Z,100548.09
2022-11-13T05:00:33.073Z,100544.00
2022-11-13T05:03:18.264Z,100543.59
2022-11-13T05:06:04.264Z,100537.81
2022-11-13T05:08:49.694Z,100538.63
2022-11-13T05:11:35.400Z,100535.38
2022-11-13T05:14:20.830Z,100542.16
2022-11-13T05:17:07.019Z,100509.66
2022-11-13T05:19:52.302Z,100542.56
2022-11-13T05:22:37.531Z,100545.84
2022-11-13T05:25:22.636Z,100550.97
2022-11-13T05:28:07.928Z,100545.84
2022-11-13T05:30:53.080Z,100548.09
2022-11-13T05:33:38.901Z,100552.25
2022-11-13T05:36:24.330Z,100550.63
2022-11-13T05:39:10.164Z,100547.97
2022-11-13T05:41:55.387Z,100548.78
2022-11-13T05:44:40.478Z,100543.94
2022-11-13T05:47:26.042Z,100544.19
2022-11-13T05:50:11.519Z,100541.81
2022-11-13T05:52:56.719Z,100534.59
2022-11-13T05:55:42.125Z,100540.94
2022-11-13T05:58:28.641Z,100539.94
2022-11-13T06:01:17.009Z,100514.88
2022-11-13T06:04:02.895Z,100527.91
2022-11-13T06:06:48.362Z,100530.09
2022-11-13T06:09:34.124Z,100518.78
2022-11-13T06:12:19.173Z,100533.19
2022-11-13T06:15:04.971Z,100527.41
2022-11-13T06:17:50.499Z,100514.75
2022-11-13T06:20:36.258Z,100530.66
2022-11-13T06:23:21.590Z,100537.63
2022-11-13T06:26:10.717Z,100530.47
2022-11-13T06:28:55.934Z,100494.28
2022-11-13T06:31:41.075Z,100539.75
2022-11-13T06:34:26.255Z,100539.56
2022-11-13T06:37:11.472Z,100538.34
2022-11-13T06:39:56.591Z,100544.56
2022-11-13T06:42:42.036Z,100536.38
2022-11-13T06:45:27.386Z,100532.78
2022-11-13T06:48:12.490Z,100539.13
2022-11-13T06:51:00.411Z,100541.00
2022-11-13T06:53:45.937Z,100533.78
2022-11-13T06:56:30.936Z,100543.63
2022-11-13T06:59:16.521Z,100538.69
2022-11-13T07:02:01.701Z,100544.25
2022-11-13T07:04:46.858Z,100542.63
2022-11-13T07:07:31.980Z,100536.78
2022-11-13T07:10:17.161Z,100537.38
2022-11-13T07:13:02.720Z,100540.31
2022-11-13T07:15:47.926Z,100516.25
2022-11-13T07:18:33.228Z,100524.41
2022-11-13T07:21:18.502Z,100541.72
2022-11-13T07:24:04.163Z,100535.91
2022-11-13T07:26:49.660Z,100530.50
2022-11-13T07:29:36.330Z,100531.31
2022-11-13T07:32:21.749Z,100508.94
2022-11-13T07:35:07.215Z,100532.09
2022-11-13T07:37:55.985Z,100538.22
2022-11-13T07:40:41.507Z,100533.50
2022-11-13T07:43:26.944Z,100528.41
2022-11-13T07:46:12.461Z,100529.84
2022-11-13T07:48:57.865Z,100531.78
2022-11-13T07:51:43.489Z,100538.13
2022-11-13T07:54:28.610Z,100538.69
2022-11-13T07:57:14.195Z,100540.19
2022-11-13T07:59:59.740Z,100543.75
2022-11-13T08:02:47.758Z,100533.63
2022-11-13T08:05:33.389Z,100533.41
2022-11-13T08:08:18.755Z,100526.19
2022-11-13T08:11:07.521Z,100524.38
2022-11-13T08:13:53.483Z,100521.53
2022-11-13T08:16:38.718Z,100533.19
2022-11-13T08:19:24.340Z,100533.00
2022-11-13T08:22:09.406Z,100535.94
2022-11-13T08:24:55.079Z,100491.97
2022-11-13T08:27:40.540Z,100538.34
2022-11-13T08:30:26.445Z,100528.66
2022-11-13T08:33:11.649Z,100539.81
2022-11-13T08:35:58.757Z,100509.56
2022-11-13T08:38:44.455Z,100534.59
2022-11-13T08:41:29.562Z,100536.63
2022-11-13T08:44:14.973Z,100534.22
2022-11-13T08:47:00.677Z,100536.47
2022-11-13T08:49:47.418Z,100528.78
2022-11-13T08:52:32.798Z,100538.81
2022-11-13T08:55:17.920Z,100530.66
2022-11-13T08:58:03.899Z,100530.81
2022-11-13T09:00:49.651Z,100529.59
2022-11-13T09:03:36.958Z,100533.28
2022-11-13T09:06:22.574Z,100536.47
2022-11-13T09:09:08.687Z,100534.16
2022-11-13T09:11:54.292Z,100529.19
2022-11-13T09:14:39.358Z,100533.25
2022-11-13T09:17:24.705Z,100545.28
2022-11-13T09:20:13.768Z,100538.00
2022-11-13T09:23:00.427Z,100529.28
2022-11-13T09:25:45.901Z,100538.31
2022-11-13T09:28:31.301Z,100538.84
2022-11-13T09:31:16.936Z,100538.63
2022-11-13T09:34:02.106Z,100534.88
2022-11-13T09:36:48.008Z,100528.69
2022-11-13T09:39:33.178Z,100531.91
2022-11-13T09:42:19.250Z,100538.25
2022-11-13T09:45:10.649Z,100531.00
2022-11-13T09:47:55.949Z,100521.97
2022-11-13T09:50:41.595Z,100522.69
2022-11-13T09:53:27.478Z,100524.56
2022-11-13T09:56:57.776Z,100519.72
2022-11-13T10:00:01.056Z,100519.03
2022-11-13T10:03:33.466Z,100465.72
2022-11-13T10:06:48.077Z,100505.69
2022-11-13T10:09:56.572Z,100512.25
2022-11-13T10:12:41.788Z,100502.38
2022-11-13T10:15:27.347Z,100495.81
2022-11-13T10:18:21.507Z,100490.09
2022-11-13T10:21:09.996Z,100451.75
2022-11-13T10:23:56.474Z,100481.72
2022-11-13T10:26:41.802Z,100479.91
2022-11-13T10:29:28.211Z,100475.75
2022-11-13T10:32:17.644Z,100460.19
2022-11-13T10:35:06.194Z,100466.84
2022-11-13T10:38:08.106Z,100460.13
2022-11-13T10:41:13.999Z,100455.91
2022-11-13T10:44:06.260Z,100457.34
2022-11-13T10:46:51.525Z,100449.25
2022-11-13T10:49:36.934Z,100452.28
2022-11-13T10:52:28.171Z,100453.84
2022-11-13T10:55:38.101Z,100446.69
2022-11-13T10:58:23.349Z,100422.22
2022-11-13T11:01:16.436Z,100450.25
2022-11-13T11:04:06.203Z,100443.72
2022-11-13T11:07:19.646Z,100433.41
2022-11-13T11:09:56.747Z,100455.13
2022-11-13T11:12:42.967Z,100448.56
2022-11-13T11:15:45.104Z,100439.78
2022-11-13T11:18:44.802Z,100434.34
2022-11-13T11:21:32.851Z,100409.66
2022-11-13T11:24:32.575Z,100427.94
2022-11-13T11:27:23.199Z,100425.41
2022-11-13T11:30:22.448Z,100388.03
2022-11-13T11:33:25.732Z,100412.47
2022-11-13T11:36:27.934Z,100410.84
2022-11-13T11:39:18.757Z,100402.34
2022-11-13T11:42:36.599Z,100407.06
2022-11-13T11:45:37.161Z,100398.25
2022-11-13T11:48:25.657Z,100395.94
2022-11-13T11:51:20.457Z,100398.09
2022-11-13T11:54:15.037Z,100394.88
2022-11-13T11:57:23.808Z,100369.94
2022-11-13T12:00:16.986Z,100375.84
2022-11-13T12:03:08.704Z,100377.41
2022-11-13T12:06:00.437Z,100386.41
2022-11-13T12:08:51.937Z,100354.78
2022-11-13T12:11:59.517Z,100317.66
2022-11-13T12:15:00.131Z,100364.31
2022-11-13T12:18:12.795Z,100356.81
2022-11-13T12:21:19.910Z,100343.69
2022-11-13T12:24:41.952Z,100341.38
2022-11-13T12:27:46.650Z,100320.25
2022-11-13T12:30:53.359Z,100324.72
2022-11-13T12:34:01.492Z,100327.22
2022-11-13T12:36:47.194Z,100318.31
2022-11-13T12:39:56.612Z,100327.28
2022-11-13T12:42:50.685Z,100318.69
2022-11-13T12:45:39.101Z,100311.69
2022-11-13T12:48:34.121Z,100317.16
2022-11-13T12:51:20.850Z,100316.41
2022-11-13T12:54:06.224Z,100312.09
2022-11-13T12:56:51.473Z,100306.97
2022-11-13T12:59:37.734Z,100311.69
2022-11-13T13:03:01.291Z,100313.06
2022-11-13T13:06:07.572Z,100294.41
2022-11-13T13:09:04.690Z,100303.09
2022-11-13T13:11:56.053Z,100304.16
2022-11-13T13:15:02.478Z,100301.75
2022-11-13T13:17:47.941Z,100292.56
2022-11-13T13:20:41.784Z,100294.75
2022-11-13T13:23:39.856Z,100285.53
2022-11-13T13:26:26.349Z,100287.69
2022-11-13T13:29:16.671Z,100289.06
2022-11-13T13:32:21.398Z,100286.88
2022-11-13T13:35:18.002Z,100288.25
2022-11-13T13:38:13.643Z,100282.53
2022-11-13T13:41:56.206Z,100281.19
2022-11-13T13:45:19.508Z,100247.25
2022-11-13T13:48:11.860Z,100265.94
2022-11-13T13:50:57.758Z,100270.03
2022-11-13T13:53:42.908Z,100260.25
2022-11-13T13:56:28.766Z,100272.47
2022-11-13T13:59:19.562Z,100261.34
2022-11-13T14:02:16.871Z,100236.09
2022-11-13T14:05:02.686Z,100258.84
2022-11-13T14:07:48.034Z,100245.81
2022-11-13T14:10:36.046Z,100245.81
2022-11-13T14:13:28.305Z,100256.13
2022-11-13T14:16:14.108Z,100258.53
2022-11-13T14:19:04.301Z,100255.25
2022-11-13T14:21:51.161Z,100211.56
2022-11-13T14:24:40.649Z,100227.84
2022-11-13T14:27:27.407Z,100254.66
2022-11-13T14:30:28.933Z,100249.50
2022-11-13T14:33:20.741Z,100237.78
2022-11-13T14:36:06.398Z,100243.25
2022-11-13T14:38:52.567Z,100248.94
2022-11-13T14:41:52.289Z,100247.09
2022-11-13T14:44:37.683Z,100243.28
2022-11-13T14:47:37.155Z,100217.78
2022-11-13T14:50:25.579Z,100245.13
2022-11-13T14:53:11.239Z,100235.16
2022-11-13T14:55:59.061Z,100245.19
2022-11-13T14:58:48.643Z,100195.34
2022-11-13T15:01:34.075Z,100235.44
2022-11-13T15:04:19.706Z,100240.94
2022-11-13T15:07:20.050Z,100228.97
2022-11-13T15:10:05.813Z,100235.50
2022-11-13T15:12:51.278Z,100213.56
2022-11-13T15:15:36.660Z,100221.41
2022-11-13T15:18:21.741Z,100223.88
2022-11-13T15:21:07.230Z,100227.13
2022-11-13T15:23:52.561Z,100235.50
2022-11-13T15:26:38.209Z,100214.63
2022-11-13T15:29:23.719Z,100234.16
2022-11-13T15:32:13.200Z,100212.72
2022-11-13T15:34:58.806Z,100232.25
2022-11-13T15:37:45.325Z,100217.63
2022-11-13T15:40:30.643Z,100231.19
2022-11-13T15:43:19.146Z,100198.34
2022-11-13T15:46:04.637Z,100232.00
2022-11-13T15:48:50.231Z,100212.22
2022-11-13T15:51:41.607Z,100213.56
2022-11-13T15:54:31.924Z,100228.78
2022-11-13T15:57:24.718Z,100229.84
2022-11-13T16:00:17.144Z,100226.34
2022-11-13T16:03:04.625Z,100225.81
2022-11-13T16:05:51.138Z,100208.75
2022-11-13T16:08:36.357Z,100230.19
2022-11-13T16:11:21.993Z,100227.13
2022-11-13T16:14:07.297Z,100209.53
2022-11-13T16:16:52.516Z,100229.38
2022-11-13T16:19:38.135Z,100234.25
2022-11-13T16:22:25.303Z,100229.34
2022-11-13T16:25:15.576Z,100235.06
2022-11-13T16:28:01.297Z,100230.75
2022-11-13T16:30:47.246Z,100241.59
2022-11-13T16:33:32.796Z,100236.44
2022-11-13T16:36:21.220Z,100234.78
2022-11-13T16:39:06.618Z,100231.25
2022-11-13T16:41:51.870Z,100224.22
2022-11-13T16:44:37.258Z,100194.38
2022-11-13T16:47:23.747Z,100224.75
2022-11-13T16:50:24.138Z,100225.31
2022-11-13T16:53:10.073Z,100222.31
2022-11-13T16:55:55.296Z,100218.53
2022-11-13T16:58:40.290Z,100214.97
2022-11-13T17:01:26.184Z,100205.75
2022-11-13T17:04:13.664Z,100201.94
2022-11-13T17:06:59.246Z,100217.38
2022-11-13T17:09:45.388Z,100212.53
2022-11-13T17:12:31.445Z,100194.56
2022-11-13T17:15:16.930Z,100219.00
2022-11-13T17:18:02.595Z,100221.41
2022-11-13T17:20:50.984Z,100217.06
2022-11-13T17:23:36.505Z,100212.44
2022-11-13T17:26:22.482Z,100212.66
2022-11-13T17:29:08.066Z,100214.84
2022-11-13T17:31:55.771Z,100203.41
2022-11-13T17:34:43.349Z,100226.72
2022-11-13T17:37:28.941Z,100221.03
2022-11-13T17:40:13.910Z,100224.56
2022-11-13T17:42:59.437Z,100198.44
2022-11-13T17:45:49.741Z,100223.94
2022-11-13T17:48:35.250Z,100229.63
2022-11-13T17:51:20.940Z,100207.09
2022-11-13T17:54:06.363Z,100230.94
2022-11-13T17:56:51.990Z,100225.19
2022-11-13T17:59:37.490Z,100222.75
2022-11-13T18:02:22.385Z,100226.25
2022-11-13T18:05:09.962Z,100219.69
2022-11-13T18:07:55.627Z,100222.09
2022-11-13T18:10:41.590Z,100225.00
2022-11-13T18:13:27.718Z,100228.56
2022-11-13T18:16:15.134Z,100223.84
2022-11-13T18:19:02.249Z,100223.09
2022-11-13T18:21:47.532Z,100226.00
2022-11-13T18:24:33.329Z,100226.78
2022-11-13T18:27:18.970Z,100235.13
2022-11-13T18:30:04.101Z,100236.03
2022-11-13T18:32:50.361Z,100235.97
2022-11-13T18:35:35.624Z,100235.97
2022-11-13T18:38:20.590Z,100243.81
2022-11-13T18:41:12.731Z,100244.00
2022-11-13T18:43:58.081Z,100235.56
2022-11-13T18:46:44.023Z,100230.72
2022-11-13T18:49:29.036Z,100244.81
2022-11-13T18:52:14.454Z,100236.13
2022-11-13T18:54:59.565Z,100225.25
2022-11-13T18:57:44.528Z,100229.56
2022-11-13T19:00:29.990Z,100231.03
2022-11-13T19:03:15.835Z,100233.06
2022-11-13T19:06:00.880Z,100224.50
2022-11-13T19:08:46.505Z,100228.53
2022-11-13T19:11:32.239Z,100202.44
2022-11-13T19:14:18.119Z,100220.91
2022-11-13T19:17:03.713Z,100226.09
2022-11-13T19:19:48.953Z,100224.28
2022-11-13T19:22:34.040Z,100231.25
2022-11-13T19:25:19.859Z,100222.84
2022-11-13T19:28:05.359Z,100225.63
2022-11-13T19:30:54.463Z,100223.06
2022-11-13T19:33:40.165Z,100195.44
2022-11-13T19:36:25.937Z,100197.84
2022-11-13T19:39:11.309Z,100213.81
2022-11-13T19:41:56.985Z,100215.03
2022-11-13T19:44:42.003Z,100220.09
2022-11-13T19:47:27.532Z,100226.50
2022-11-13T19:50:12.598Z,100227.25
2022-11-13T19:52:58.088Z,100223.09
2022-11-13T19:55:43.227Z,100230.81
2022-11-13T19:58:29.445Z,100229.16
2022-11-13T20:01:16.998Z,100231.31
2022-11-13T20:04:03.336Z,100228.97
2022-11-13T20:06:48.527Z,100219.88
2022-11-13T20:09:34.272Z,100231.84
2022-11-13T20:12:19.405Z,100229.63
2022-11-13T20:15:05.449Z,100232.31
2022-11-13T20:17:51.011Z,100229.34
2022-11-13T20:20:36.483Z,100233.13
2022-11-13T20:23:21.700Z,100225.75
2022-11-13T20:26:08.783Z,100239.31
2022-11-13T20:28:54.184Z,100201.94
2022-11-13T20:31:39.131Z,100245.47
2022-11-13T20:34:24.647Z,100233.78
2022-11-13T20:37:09.671Z,100232.63
2022-11-13T20:39:55.092Z,100227.09
2022-11-13T20:42:40.336Z,100228.09
2022-11-13T20:45:25.462Z,100228.00
2022-11-13T20:48:10.972Z,100227.09
2022-11-13T20:50:56.123Z,100237.63
2022-11-13T20:53:41.498Z,100186.91
2022-11-13T20:56:26.941Z,100233.63
2022-11-13T20:59:12.402Z,100237.84
2022-11-13T21:01:57.743Z,100243.72
2022-11-13T21:04:43.355Z,100247.16
2022-11-13T21:07:28.571Z,100238.28
2022-11-13T21:10:14.407Z,100243.94
2022-11-13T21:12:59.491Z,100239.53
2022-11-13T21:15:45.000Z,100244.31
2022-11-13T21:18:30.338Z,100247.75
2022-11-13T21:21:19.326Z,100246.59
2022-11-13T21:24:04.849Z,100231.50
2022-11-13T21:26:50.274Z,100240.97
2022-11-13T21:29:35.290Z,100225.97
2022-11-13T21:32:20.862Z,100222.22
2022-11-13T21:35:05.933Z,100220.34
2022-11-13T21:37:51.759Z,100218.03
2022-11-13T21:40:36.947Z,100221.84
2022-11-13T21:43:22.042Z,100221.59
2022-11-13T21:46:07.459Z,100208.56
2022-11-13T21:49:00.499Z,100210.53
2022-11-13T21:51:45.933Z,100213.56
2022-11-13T21:54:31.287Z,100205.97
2022-11-13T21:57:16.330Z,100215.78
2022-11-13T22:00:01.902Z,100218.38
2022-11-13T22:02:46.955Z,100221.53
2022-11-13T22:05:32.399Z,100205.41
2022-11-13T22:08:17.684Z,100225.41
2022-11-13T22:11:03.717Z,100197.00
2022-11-13T22:13:49.197Z,100229.50
2022-11-13T22:16:34.913Z,100226.84
2022-11-13T22:19:25.611Z,100199.47
2022-11-13T22:22:12.596Z,100233.81
2022-11-13T22:24:58.328Z,100234.06
2022-11-13T22:27:43.642Z,100225.13
2022-11-13T22:30:28.721Z,100232.31
2022-11-13T22:33:14.271Z,100220.53
2022-11-13T22:36:03.089Z,100215.28
2022-11-13T22:38:48.550Z,100216.78
2022-11-13T22:41:34.266Z,100215.38
2022-11-13T22:44:19.510Z,100221.16
2022-11-13T22:47:04.655Z,100213.31
2022-11-13T22:49:49.932Z,100206.63
2022-11-13T22:52:35.010Z,100198.94
2022-11-13T22:55:20.359Z,100201.28
2022-11-13T22:58:05.449Z,100198.38
2022-11-13T23:00:51.028Z,100177.81
2022-11-13T23:03:36.731Z,100203.06
2022-11-13T23:06:24.058Z,100183.56
2022-11-13T23:09:09.527Z,100191.63
2022-11-13T23:11:54.614Z,100186.25
2022-11-13T23:14:39.793Z,100182.25
2022-11-13T23:17:24.899Z,100191.59
2022-11-13T23:20:10.577Z,100188.16
2022-11-13T23:22:55.889Z,100193.88
2022-11-13T23:25:41.812Z,100180.78
2022-11-13T23:28:28.327Z,100185.59
2022-11-13T23:31:14.002Z,100143.75
2022-11-13T23:33:59.177Z,100174.16
2022-11-13T23:36:44.345Z,100174.59
2022-11-13T23:39:29.434Z,100175.31
2022-11-13T23:42:18.126Z,100167.13
2022-11-13T23:45:13.128Z,100166.53
2022-11-13T23:47:58.384Z,100169.69
2022-11-13T23:50:44.468Z,100169.03
2022-11-13T23:53:30.894Z,100139.22
2022-11-13T23:56:16.558Z,100153.94
2022-11-13T23:59:01.717Z,100158.47
